Time;durP1;ratioP1;P1;durP2;ratioP2;P2;SDS_P1;SDS_P2;PMS_P1;PMS_P2;Temp;Humidity;BMP_temperature;BMP_pressure;BME280_temperature;BME280_humidity;BME280_pressure;Samples;Min_cycle;Max_cycle;Signal;HPM_P1;HPM_P2
2023/08/04 00:01:02;;;;;;;2.53;1.20;;;;;;;;;;5070965;28;20272;-67
2023/08/04 00:03:46;;;;;;;1.30;1.10;;;;;;;;;;5052892;28;20185;-68
2023/08/04 00:06:13;;;;;;;1.40;1.00;;;;;;;;;;5070745;28;20178;-68
2023/08/04 00:08:40;;;;;;;2.13;1.30;;;;;;;;;;5071369;28;20672;-68
2023/08/04 00:11:09;;;;;;;4.00;1.10;;;;;;;;;;5070627;28;20269;-68
2023/08/04 00:13:36;;;;;;;3.10;1.30;;;;;;;;;;5070636;28;20186;-67
2023/08/04 00:16:08;;;;;;;1.97;1.10;;;;;;;;;;5070734;28;20998;-68
2023/08/04 00:18:35;;;;;;;2.60;1.00;;;;;;;;;;5070440;28;20712;-68
2023/08/04 00:21:03;;;;;;;2.97;1.07;;;;;;;;;;5070913;28;20289;-68
2023/08/04 00:23:29;;;;;;;3.03;1.20;;;;;;;;;;5053011;28;20198;-68
2023/08/04 00:25:56;;;;;;;1.40;1.30;;;;;;;;;;5070400;28;20240;-68
2023/08/04 00:28:23;;;;;;;2.70;1.07;;;;;;;;;;5070364;28;20186;-68
2023/08/04 00:30:52;;;;;;;2.43;1.17;;;;;;;;;;5070333;28;20198;-68
2023/08/04 00:33:18;;;;;;;1.33;1.00;;;;;;;;;;5052374;28;20197;-68
2023/08/04 00:35:45;;;;;;;1.67;1.00;;;;;;;;;;5052349;28;20320;-68
2023/08/04 00:38:12;;;;;;;2.50;1.30;;;;;;;;;;5052476;28;20264;-68
2023/08/04 00:40:39;;;;;;;1.53;1.07;;;;;;;;;;5070139;28;20175;-68
2023/08/04 00:43:05;;;;;;;1.03;0.90;;;;;;;;;;5069876;28;20170;-68
2023/08/04 00:45:32;;;;;;;1.90;1.13;;;;;;;;;;5052168;28;20240;-68
2023/08/04 00:47:59;;;;;;;3.13;1.30;;;;;;;;;;5070601;28;20180;-68
2023/08/04 00:50:26;;;;;;;1.63;1.10;;;;;;;;;;5069777;28;20202;-68
2023/08/04 00:52:53;;;;;;;3.27;1.10;;;;;;;;;;5069909;28;20201;-68
2023/08/04 00:55:21;;;;;;;1.30;1.20;;;;;;;;;;5047758;28;20199;-68
2023/08/04 00:57:47;;;;;;;2.63;1.20;;;;;;;;;;5089853;28;20205;-68
2023/08/04 01:00:32;;;;;;;2.07;1.30;;;;;;;;;;5057756;28;20187;-68
2023/08/04 01:02:58;;;;;;;2.03;1.13;;;;;;;;;;5072515;28;20273;-67
2023/08/04 01:05:27;;;;;;;2.67;1.40;;;;;;;;;;5071681;28;20242;-67
2023/08/04 01:07:56;;;;;;;4.07;1.10;;;;;;;;;;5089874;28;20162;-68
2023/08/04 01:10:35;;;;;;;2.10;1.40;;;;;;;;;;5055116;28;20201;-68
2023/08/04 01:45:05;;;;;;;2.80;1.50;;;;;;;;;;4810709;28;20266;-68
2023/08/04 01:47:50;;;;;;;2.20;1.60;;;;;;;;;;5072720;28;20582;-68
2023/08/04 01:50:16;;;;;;;1.77;1.40;;;;;;;;;;5090814;28;20613;-68
2023/08/04 01:52:43;;;;;;;3.97;1.50;;;;;;;;;;5090297;28;20595;-68
2023/08/04 01:55:10;;;;;;;3.93;1.57;;;;;;;;;;5060442;28;20624;-68
2023/08/04 01:57:37;;;;;;;3.47;1.43;;;;;;;;;;5050990;28;20189;-68
2023/08/04 02:00:06;;;;;;;2.80;1.50;;;;;;;;;;5051521;28;20198;-68
2023/08/04 02:02:39;;;;;;;3.63;1.50;;;;;;;;;;5069796;28;20280;-68
2023/08/04 02:05:07;;;;;;;1.97;1.47;;;;;;;;;;5068830;28;20252;-68
2023/08/04 02:07:34;;;;;;;2.57;1.70;;;;;;;;;;5050874;28;20178;-68
2023/08/04 02:10:02;;;;;;;4.73;1.40;;;;;;;;;;5051391;28;20664;-68
2023/08/04 02:12:29;;;;;;;1.77;1.20;;;;;;;;;;5050898;28;20190;-68
2023/08/04 02:14:56;;;;;;;3.33;1.37;;;;;;;;;;5051297;28;20198;-68
2023/08/04 02:17:24;;;;;;;1.60;1.47;;;;;;;;;;5070019;28;20255;-68
2023/08/04 02:20:08;;;;;;;4.63;1.47;;;;;;;;;;5072881;28;20170;-68
2023/08/04 02:22:34;;;;;;;2.37;1.40;;;;;;;;;;5072519;28;20228;-68
2023/08/04 02:25:01;;;;;;;4.50;2.20;;;;;;;;;;5072841;28;20200;-68
2023/08/04 02:27:28;;;;;;;2.23;1.40;;;;;;;;;;5072370;28;20174;-68
2023/08/04 02:29:55;;;;;;;2.60;1.50;;;;;;;;;;5072831;28;20178;-68
2023/08/04 02:32:39;;;;;;;3.10;1.70;;;;;;;;;;5072870;28;20702;-68
2023/08/04 02:35:06;;;;;;;2.17;1.77;;;;;;;;;;5072424;28;20296;-68
2023/08/04 02:37:50;;;;;;;1.73;1.60;;;;;;;;;;5072494;28;20735;-68
2023/08/04 02:40:17;;;;;;;1.97;1.63;;;;;;;;;;5072415;28;20178;-68
2023/08/04 02:43:01;;;;;;;2.13;1.90;;;;;;;;;;5054403;28;20283;-68
2023/08/04 02:45:28;;;;;;;3.03;1.80;;;;;;;;;;5072285;28;20624;-68
2023/08/04 02:48:12;;;;;;;3.40;1.70;;;;;;;;;;5057100;28;20252;-68
2023/08/04 02:50:39;;;;;;;2.53;1.80;;;;;;;;;;5054617;28;20210;-68
2023/08/04 02:53:05;;;;;;;3.57;1.83;;;;;;;;;;5071886;28;20186;-68
2023/08/04 02:55:32;;;;;;;3.37;1.60;;;;;;;;;;5068267;28;20225;-67
2023/08/04 02:57:59;;;;;;;2.93;1.97;;;;;;;;;;5073860;28;20209;-68
2023/08/04 03:00:43;;;;;;;3.33;1.97;;;;;;;;;;5092298;28;20175;-68
2023/08/04 03:03:10;;;;;;;2.17;1.83;;;;;;;;;;5092104;28;20578;-68
2023/08/04 03:05:56;;;;;;;3.23;1.83;;;;;;;;;;5092405;28;20223;-68
2023/08/04 03:08:22;;;;;;;2.83;2.00;;;;;;;;;;5092059;28;20193;-68
2023/08/04 03:10:49;;;;;;;3.67;1.77;;;;;;;;;;5092476;28;20189;-67
2023/08/04 03:13:16;;;;;;;6.27;2.13;;;;;;;;;;5091744;28;20213;-67
2023/08/04 03:15:42;;;;;;;4.10;2.30;;;;;;;;;;5091733;28;20320;-68
2023/08/04 03:18:27;;;;;;;3.63;2.17;;;;;;;;;;5091724;28;20209;-67
2023/08/04 03:20:53;;;;;;;2.10;1.90;;;;;;;;;;5092218;28;20189;-68
2023/08/04 03:23:37;;;;;;;3.00;2.07;;;;;;;;;;5076896;28;20169;-68
2023/08/04 03:26:04;;;;;;;3.57;2.00;;;;;;;;;;5073868;28;20189;-68
2023/08/04 03:28:31;;;;;;;3.93;2.50;;;;;;;;;;5091300;28;20174;-68
2023/08/04 03:30:58;;;;;;;4.87;2.40;;;;;;;;;;5091899;28;20708;-68
2023/08/04 03:33:24;;;;;;;4.00;2.40;;;;;;;;;;5091320;28;20178;-68
2023/08/04 03:35:51;;;;;;;5.50;2.30;;;;;;;;;;5091841;28;20255;-67
2023/08/04 03:38:18;;;;;;;4.40;2.60;;;;;;;;;;5091519;28;20205;-68
2023/08/04 03:40:45;;;;;;;3.43;2.60;;;;;;;;;;5091309;28;20552;-68
2023/08/04 03:43:11;;;;;;;3.73;2.30;;;;;;;;;;5091321;28;20182;-67
2023/08/04 03:45:38;;;;;;;4.33;2.50;;;;;;;;;;5091413;28;20225;-67
2023/08/04 03:48:05;;;;;;;5.03;2.57;;;;;;;;;;5091504;28;20166;-68
2023/08/04 03:50:49;;;;;;;3.90;2.50;;;;;;;;;;5091725;28;20201;-68
2023/08/04 03:53:16;;;;;;;3.70;2.53;;;;;;;;;;5091083;28;20200;-68
2023/08/04 03:55:43;;;;;;;5.30;2.43;;;;;;;;;;5075318;28;20657;-68
2023/08/04 03:58:10;;;;;;;3.77;2.60;;;;;;;;;;5052752;28;20194;-68
2023/08/04 04:00:36;;;;;;;3.40;2.40;;;;;;;;;;5070896;28;20185;-68
2023/08/04 04:03:04;;;;;;;3.40;2.50;;;;;;;;;;5070990;28;20194;-68
2023/08/04 04:05:31;;;;;;;3.40;2.33;;;;;;;;;;5070885;28;21091;-68
2023/08/04 04:07:58;;;;;;;5.23;2.13;;;;;;;;;;5070704;28;20178;-68
2023/08/04 04:10:43;;;;;;;2.93;2.63;;;;;;;;;;5070719;28;20719;-67
2023/08/04 04:13:09;;;;;;;3.00;2.40;;;;;;;;;;5070431;28;20213;-68
2023/08/04 04:15:36;;;;;;;3.97;2.60;;;;;;;;;;5070653;28;20201;-67
2023/08/04 04:18:03;;;;;;;3.57;2.43;;;;;;;;;;5070794;28;20293;-68
2023/08/04 04:20:30;;;;;;;4.67;2.70;;;;;;;;;;5070288;28;20511;-68
2023/08/04 04:22:56;;;;;;;2.60;2.40;;;;;;;;;;5072037;28;20205;-68
2023/08/04 04:25:23;;;;;;;5.53;2.30;;;;;;;;;;5071555;28;20228;-68
2023/08/04 04:27:50;;;;;;;3.10;2.40;;;;;;;;;;5070284;28;20196;-68
2023/08/04 04:30:34;;;;;;;4.33;2.37;;;;;;;;;;5070585;28;20522;-68
2023/08/04 04:33:00;;;;;;;3.20;2.27;;;;;;;;;;5070405;28;20214;-68
2023/08/04 04:35:49;;;;;;;3.07;2.47;;;;;;;;;;5070494;28;20166;-68
2023/08/04 04:38:15;;;;;;;3.47;2.70;;;;;;;;;;5069900;28;20365;-68
2023/08/04 04:40:42;;;;;;;2.97;2.40;;;;;;;;;;5069526;28;20210;-68
2023/08/04 04:43:09;;;;;;;3.90;2.77;;;;;;;;;;5069874;28;20186;-68
2023/08/04 04:45:36;;;;;;;3.03;2.70;;;;;;;;;;5069904;28;20226;-67
2023/08/04 04:48:20;;;;;;;5.60;2.53;;;;;;;;;;5069957;28;20466;-67
2023/08/04 04:50:47;;;;;;;3.07;2.53;;;;;;;;;;5070270;28;20208;-67
2023/08/04 04:53:31;;;;;;;3.40;2.80;;;;;;;;;;5069984;28;20277;-67
2023/08/04 04:55:57;;;;;;;3.50;2.40;;;;;;;;;;5087324;28;20715;-67
2023/08/04 04:58:24;;;;;;;5.07;2.50;;;;;;;;;;5089533;28;20293;-67
2023/08/04 05:00:51;;;;;;;3.70;2.73;;;;;;;;;;5072270;28;20185;-67
2023/08/04 05:03:18;;;;;;;3.23;2.70;;;;;;;;;;5072049;28;20181;-67
2023/08/04 05:06:02;;;;;;;2.67;2.43;;;;;;;;;;5090482;28;20165;-67
2023/08/04 05:08:28;;;;;;;2.60;2.30;;;;;;;;;;5090008;28;20513;-67
2023/08/04 05:10:55;;;;;;;3.00;2.30;;;;;;;;;;5090262;28;20205;-67
2023/08/04 05:13:22;;;;;;;5.93;2.53;;;;;;;;;;5091457;28;20181;-67
2023/08/04 05:15:49;;;;;;;3.33;2.40;;;;;;;;;;5090449;28;20181;-67
2023/08/04 05:18:15;;;;;;;3.17;2.57;;;;;;;;;;5089533;28;20180;-67
2023/08/04 05:20:46;;;;;;;3.23;2.60;;;;;;;;;;5090012;28;20235;-68
2023/08/04 05:23:14;;;;;;;3.43;2.43;;;;;;;;;;5089650;28;20177;-68
2023/08/04 05:25:40;;;;;;;3.47;2.27;;;;;;;;;;5089814;28;20235;-67
2023/08/04 05:28:23;;;;;;;3.00;2.47;;;;;;;;;;5054868;28;20170;-68
2023/08/04 05:31:08;;;;;;;4.30;2.47;;;;;;;;;;5089542;28;20166;-68
2023/08/04 05:33:35;;;;;;;2.60;2.40;;;;;;;;;;5071647;28;20274;-67
2023/08/04 05:36:19;;;;;;;2.67;2.20;;;;;;;;;;5089797;28;20162;-67
2023/08/04 05:38:46;;;;;;;3.17;2.57;;;;;;;;;;5071767;28;20205;-68
2023/08/04 05:41:13;;;;;;;4.00;2.53;;;;;;;;;;5071279;28;20202;-68
2023/08/04 05:43:40;;;;;;;2.60;2.40;;;;;;;;;;5089358;28;20212;-68
2023/08/04 05:46:06;;;;;;;3.10;2.47;;;;;;;;;;5089191;28;20623;-67
2023/08/04 05:48:51;;;;;;;3.13;2.40;;;;;;;;;;5089384;28;20165;-67
2023/08/04 05:51:17;;;;;;;6.63;2.40;;;;;;;;;;5072630;28;20651;-68
2023/08/04 05:53:44;;;;;;;4.80;2.30;;;;;;;;;;5093745;28;20185;-67
2023/08/04 05:56:11;;;;;;;3.07;1.90;;;;;;;;;;5073839;28;20293;-68
2023/08/04 05:58:38;;;;;;;2.83;2.53;;;;;;;;;;5073091;28;20194;-67
2023/08/04 06:01:22;;;;;;;2.77;2.30;;;;;;;;;;5073606;28;20816;-68
2023/08/04 06:03:48;;;;;;;2.90;2.30;;;;;;;;;;5073234;28;20218;-67
2023/08/04 06:06:18;;;;;;;2.47;2.23;;;;;;;;;;5073177;28;20190;-67
2023/08/04 06:08:44;;;;;;;3.90;2.23;;;;;;;;;;5073074;28;20603;-68
2023/08/04 06:11:11;;;;;;;3.97;2.27;;;;;;;;;;5054893;28;20300;-67
2023/08/04 06:13:39;;;;;;;2.17;1.93;;;;;;;;;;5055196;28;20181;-67
2023/08/04 06:16:06;;;;;;;2.93;2.30;;;;;;;;;;5072646;28;20174;-67
2023/08/04 06:18:33;;;;;;;3.13;2.07;;;;;;;;;;5054733;28;20194;-67
2023/08/04 06:21:00;;;;;;;3.67;2.00;;;;;;;;;;5073059;28;20186;-67
2023/08/04 06:23:27;;;;;;;3.70;2.27;;;;;;;;;;5072615;28;20179;-67
2023/08/04 06:25:53;;;;;;;4.03;2.07;;;;;;;;;;5072399;28;20189;-68
2023/08/04 06:28:20;;;;;;;2.23;2.03;;;;;;;;;;5072574;28;20198;-67
2023/08/04 06:30:47;;;;;;;3.37;2.10;;;;;;;;;;5072476;28;20174;-67
2023/08/04 06:33:14;;;;;;;4.80;2.23;;;;;;;;;;5072262;28;20193;-67
2023/08/04 06:35:58;;;;;;;3.17;2.60;;;;;;;;;;5072724;28;20656;-68
2023/08/04 06:38:25;;;;;;;3.33;1.87;;;;;;;;;;5072423;28;20209;-67
2023/08/04 06:40:51;;;;;;;3.10;2.23;;;;;;;;;;5037881;28;20819;-67
2023/08/04 06:43:18;;;;;;;2.67;2.10;;;;;;;;;;5072361;28;20530;-67
2023/08/04 06:45:45;;;;;;;2.30;1.70;;;;;;;;;;5072068;28;20229;-69
2023/08/04 06:48:29;;;;;;;2.00;1.80;;;;;;;;;;5072366;28;20921;-67
2023/08/04 06:50:56;;;;;;;2.37;1.80;;;;;;;;;;5072642;28;20221;-68
2023/08/04 06:53:40;;;;;;;3.03;1.97;;;;;;;;;;5072812;28;20284;-67
2023/08/04 06:56:07;;;;;;;5.67;2.20;;;;;;;;;;5072473;28;20265;-67
2023/08/04 06:58:34;;;;;;;2.90;1.70;;;;;;;;;;5091980;28;20184;-68
2023/08/04 07:01:01;;;;;;;2.70;2.00;;;;;;;;;;5092481;28;20177;-67
2023/08/04 07:03:27;;;;;;;3.17;1.97;;;;;;;;;;5074963;28;20304;-67
2023/08/04 07:05:54;;;;;;;1.90;1.70;;;;;;;;;;5092934;28;20189;-68
2023/08/04 07:08:21;;;;;;;3.13;1.80;;;;;;;;;;5092340;28;20191;-68
2023/08/04 07:10:48;;;;;;;2.17;1.60;;;;;;;;;;5074334;28;20181;-67
2023/08/04 07:13:32;;;;;;;3.33;2.00;;;;;;;;;;5092169;28;20191;-67
2023/08/04 07:15:59;;;;;;;3.23;1.77;;;;;;;;;;5092017;28;20190;-68
2023/08/04 07:18:26;;;;;;;1.87;1.50;;;;;;;;;;5073996;28;20282;-67
2023/08/04 07:20:53;;;;;;;3.90;1.97;;;;;;;;;;5091930;28;20210;-67
2023/08/04 07:23:19;;;;;;;2.20;1.63;;;;;;;;;;5091853;28;20201;-67
2023/08/04 07:25:46;;;;;;;3.50;1.57;;;;;;;;;;5091507;28;20180;-67
2023/08/04 07:28:13;;;;;;;3.73;1.70;;;;;;;;;;5091659;28;20544;-67
2023/08/04 07:30:40;;;;;;;1.90;1.40;;;;;;;;;;5075283;28;20221;-67
2023/08/04 07:33:06;;;;;;;3.43;1.90;;;;;;;;;;5093012;28;20271;-67
2023/08/04 07:35:33;;;;;;;3.67;1.87;;;;;;;;;;5092533;28;20624;-67
2023/08/04 07:38:00;;;;;;;3.07;1.50;;;;;;;;;;5093164;28;20197;-67
2023/08/04 07:40:27;;;;;;;2.70;1.90;;;;;;;;;;5092182;28;20280;-67
2023/08/04 07:42:54;;;;;;;4.03;1.80;;;;;;;;;;5091408;28;20209;-67
2023/08/04 07:45:20;;;;;;;2.50;1.83;;;;;;;;;;5069894;28;20230;-67
2023/08/04 07:47:47;;;;;;;3.07;2.10;;;;;;;;;;5071409;28;20181;-67
2023/08/04 07:50:14;;;;;;;2.47;1.60;;;;;;;;;;5071007;28;20176;-67
2023/08/04 07:52:41;;;;;;;3.27;1.70;;;;;;;;;;5071171;28;20198;-66
2023/08/04 07:55:08;;;;;;;2.00;1.70;;;;;;;;;;5060940;28;20241;-67
2023/08/04 07:57:34;;;;;;;3.60;2.10;;;;;;;;;;5050868;28;20179;-67
2023/08/04 08:00:01;;;;;;;2.00;1.37;;;;;;;;;;5051593;28;20646;-68
2023/08/04 08:02:29;;;;;;;2.13;1.60;;;;;;;;;;5050965;28;20226;-67
2023/08/04 08:04:56;;;;;;;2.73;1.40;;;;;;;;;;5050861;28;20657;-67
2023/08/04 08:07:23;;;;;;;3.47;1.47;;;;;;;;;;5050524;28;20195;-68
2023/08/04 08:10:05;;;;;;;3.27;1.67;;;;;;;;;;5049687;28;20183;-68
2023/08/04 08:12:32;;;;;;;2.20;1.67;;;;;;;;;;5050748;28;20585;-68
2023/08/04 08:15:17;;;;;;;4.00;1.60;;;;;;;;;;5049479;28;20171;-67
2023/08/04 08:17:43;;;;;;;2.07;1.40;;;;;;;;;;5051034;28;20191;-68
2023/08/04 08:20:10;;;;;;;3.03;1.70;;;;;;;;;;5050631;28;20750;-67
2023/08/04 08:22:37;;;;;;;3.43;2.00;;;;;;;;;;5049465;28;20194;-67
2023/08/04 08:25:04;;;;;;;2.40;1.87;;;;;;;;;;5050469;28;20318;-67
2023/08/04 08:27:48;;;;;;;4.10;1.80;;;;;;;;;;5050135;28;20155;-67
2023/08/04 08:30:15;;;;;;;2.83;1.60;;;;;;;;;;5050361;28;20550;-67
2023/08/04 08:32:42;;;;;;;5.10;1.63;;;;;;;;;;5050722;28;20194;-67
2023/08/04 08:35:08;;;;;;;1.40;1.30;;;;;;;;;;5050420;28;20219;-68
2023/08/04 08:37:35;;;;;;;1.63;1.20;;;;;;;;;;5050141;28;20195;-67
2023/08/04 08:40:03;;;;;;;4.27;2.13;;;;;;;;;;5049288;28;20210;-68
2023/08/04 08:42:31;;;;;;;4.73;1.60;;;;;;;;;;5050081;28;20183;-69
2023/08/04 08:44:58;;;;;;;2.13;1.50;;;;;;;;;;5056691;28;20229;-68
2023/08/04 08:47:24;;;;;;;1.90;1.40;;;;;;;;;;5069920;28;20190;-68
2023/08/04 08:49:51;;;;;;;2.23;1.50;;;;;;;;;;5035688;28;20202;-68
2023/08/04 08:52:18;;;;;;;3.10;1.27;;;;;;;;;;5052179;28;20175;-67
2023/08/04 08:54:45;;;;;;;1.90;1.60;;;;;;;;;;5059744;28;20177;-68
2023/08/04 08:57:12;;;;;;;2.60;1.63;;;;;;;;;;5090269;28;20213;-68
2023/08/04 08:59:38;;;;;;;3.97;1.90;;;;;;;;;;5090123;28;20201;-68
2023/08/04 09:02:22;;;;;;;4.10;1.50;;;;;;;;;;5071706;28;20181;-69
2023/08/04 09:04:49;;;;;;;4.17;1.57;;;;;;;;;;5072193;28;20268;-68
2023/08/04 09:07:16;;;;;;;2.37;1.40;;;;;;;;;;5071928;28;20653;-68
2023/08/04 09:09:43;;;;;;;2.53;1.50;;;;;;;;;;5090267;28;20174;-68
2023/08/04 09:12:10;;;;;;;4.47;1.77;;;;;;;;;;5089753;28;20235;-68
2023/08/04 09:14:54;;;;;;;1.40;1.30;;;;;;;;;;5074959;28;20595;-67
2023/08/04 09:17:28;;;;;;;1.77;1.30;;;;;;;;;;5071962;28;20177;-67
2023/08/04 09:20:28;;;;;;;2.00;1.40;;;;;;;;;;5089737;28;20204;-68
2023/08/04 09:22:55;;;;;;;3.50;1.50;;;;;;;;;;5089693;28;20216;-68
2023/08/04 09:25:50;;;;;;;2.97;1.50;;;;;;;;;;5074203;28;20181;-67
2023/08/04 09:28:17;;;;;;;2.63;1.40;;;;;;;;;;5089485;28;20189;-67
2023/08/04 09:31:01;;;;;;;2.60;1.40;;;;;;;;;;5089523;28;20185;-68
2023/08/04 09:33:28;;;;;;;2.90;1.53;;;;;;;;;;5089854;28;20260;-68
2023/08/04 09:36:01;;;;;;;1.97;1.50;;;;;;;;;;5089795;28;20192;-68
2023/08/04 09:38:29;;;;;;;1.63;1.33;;;;;;;;;;5089563;28;20649;-67
2023/08/04 09:41:00;;;;;;;2.23;1.40;;;;;;;;;;5089357;28;20201;-67
2023/08/04 09:43:26;;;;;;;3.27;1.53;;;;;;;;;;5089268;28;20585;-68
2023/08/04 09:45:54;;;;;;;2.87;1.60;;;;;;;;;;5071536;28;20584;-67
2023/08/04 09:48:38;;;;;;;2.53;1.40;;;;;;;;;;5089608;28;20641;-67
2023/08/04 09:51:08;;;;;;;1.93;1.37;;;;;;;;;;5089644;28;20614;-67
2023/08/04 09:53:54;;;;;;;3.03;1.23;;;;;;;;;;5089337;28;20163;-68
2023/08/04 09:56:21;;;;;;;3.20;1.50;;;;;;;;;;5069120;28;20261;-68
2023/08/04 09:59:06;;;;;;;2.30;1.30;;;;;;;;;;5069261;28;20525;-68
2023/08/04 10:01:33;;;;;;;2.40;1.30;;;;;;;;;;5051170;28;20299;-68
2023/08/04 10:04:00;;;;;;;1.73;1.20;;;;;;;;;;5051467;28;20173;-68
2023/08/04 10:06:28;;;;;;;3.43;1.40;;;;;;;;;;5051213;28;20201;-68
2023/08/04 10:08:55;;;;;;;3.90;1.10;;;;;;;;;;5069472;28;20584;-67
2023/08/04 10:11:39;;;;;;;2.47;1.33;;;;;;;;;;5069402;28;20168;-67
2023/08/04 10:14:06;;;;;;;2.30;1.30;;;;;;;;;;5050955;28;20643;-68
2023/08/04 10:16:33;;;;;;;2.30;1.37;;;;;;;;;;5068844;28;20193;-68
2023/08/04 10:19:02;;;;;;;2.00;1.30;;;;;;;;;;5068979;28;20276;-68
2023/08/04 10:21:33;;;;;;;3.27;1.50;;;;;;;;;;5069239;28;20687;-68
2023/08/04 10:24:06;;;;;;;2.23;1.47;;;;;;;;;;5069280;28;20189;-68
2023/08/04 10:26:33;;;;;;;2.80;1.17;;;;;;;;;;5069262;28;20254;-68
2023/08/04 10:29:01;;;;;;;2.33;1.50;;;;;;;;;;5068737;28;20223;-68
2023/08/04 10:31:47;;;;;;;2.10;1.30;;;;;;;;;;5068673;28;20191;-67
2023/08/04 10:34:27;;;;;;;1.60;1.30;;;;;;;;;;5069071;28;20186;-67
2023/08/04 10:37:11;;;;;;;1.57;1.30;;;;;;;;;;5053705;28;20171;-68
2023/08/04 10:39:39;;;;;;;1.67;1.20;;;;;;;;;;5072099;28;20285;-67
2023/08/04 10:42:09;;;;;;;1.97;1.23;;;;;;;;;;5072618;28;20175;-68
2023/08/04 10:44:48;;;;;;;2.80;1.50;;;;;;;;;;5072477;28;20331;-67
2023/08/04 10:47:39;;;;;;;1.43;1.10;;;;;;;;;;5072620;28;20526;-67
2023/08/04 10:50:24;;;;;;;2.13;1.40;;;;;;;;;;5072400;28;20656;-67
2023/08/04 10:52:53;;;;;;;2.90;1.23;;;;;;;;;;5054831;28;20230;-67
2023/08/04 10:55:19;;;;;;;2.33;1.10;;;;;;;;;;5084335;28;20182;-66
2023/08/04 10:57:46;;;;;;;1.30;1.20;;;;;;;;;;5092455;28;20189;-67
2023/08/04 11:00:14;;;;;;;2.07;1.03;;;;;;;;;;5092470;28;20292;-67
2023/08/04 11:02:41;;;;;;;1.83;1.20;;;;;;;;;;5092701;28;20188;-67
2023/08/04 11:05:09;;;;;;;1.33;1.10;;;;;;;;;;5092540;28;20204;-67
2023/08/04 11:07:53;;;;;;;2.73;1.20;;;;;;;;;;5077270;28;20162;-68
2023/08/04 11:10:20;;;;;;;4.93;1.37;;;;;;;;;;5092547;28;20624;-67
2023/08/04 11:12:52;;;;;;;2.80;1.50;;;;;;;;;;5092234;28;20173;-67
2023/08/04 11:15:18;;;;;;;2.47;1.50;;;;;;;;;;5092507;28;20649;-68
2023/08/04 11:17:45;;;;;;;4.80;1.63;;;;;;;;;;5074496;28;20178;-67
2023/08/04 11:20:12;;;;;;;3.13;1.60;;;;;;;;;;5092260;28;20813;-67
2023/08/04 11:22:46;;;;;;;2.53;1.37;;;;;;;;;;5092026;28;21122;-67
2023/08/04 11:25:13;;;;;;;2.43;1.57;;;;;;;;;;5092107;28;20279;-67
2023/08/04 11:27:41;;;;;;;2.30;1.33;;;;;;;;;;5091938;28;20195;-67
2023/08/04 11:30:10;;;;;;;3.57;1.60;;;;;;;;;;5092537;28;20657;-67
2023/08/04 11:32:37;;;;;;;1.63;1.40;;;;;;;;;;5092219;28;20679;-67
2023/08/04 11:35:04;;;;;;;1.80;1.40;;;;;;;;;;5092030;28;20196;-67
2023/08/04 11:37:31;;;;;;;2.83;1.20;;;;;;;;;;5074133;28;20189;-67
2023/08/04 11:40:21;;;;;;;1.40;1.10;;;;;;;;;;5091864;28;20273;-67
2023/08/04 11:42:48;;;;;;;1.40;1.20;;;;;;;;;;5091621;28;20210;-67
2023/08/04 11:45:33;;;;;;;3.27;1.30;;;;;;;;;;5076367;28;20259;-67
2023/08/04 11:48:00;;;;;;;1.90;1.10;;;;;;;;;;5091924;28;20169;-67
2023/08/04 11:50:46;;;;;;;1.97;1.30;;;;;;;;;;5091447;28;20181;-67
2023/08/04 11:53:13;;;;;;;1.87;1.37;;;;;;;;;;5091321;28;20218;-67
2023/08/04 11:55:52;;;;;;;2.00;1.10;;;;;;;;;;5076809;28;20203;-67
2023/08/04 11:58:28;;;;;;;3.13;1.30;;;;;;;;;;5071113;28;20197;-67
2023/08/04 12:00:54;;;;;;;1.20;1.10;;;;;;;;;;5071044;28;20275;-67
2023/08/04 12:03:21;;;;;;;1.93;1.30;;;;;;;;;;5071512;28;20204;-67
2023/08/04 12:05:49;;;;;;;2.27;1.07;;;;;;;;;;5071477;28;20198;-68
2023/08/04 12:08:16;;;;;;;2.27;1.23;;;;;;;;;;5053340;28;20213;-67
2023/08/04 12:10:43;;;;;;;2.30;1.20;;;;;;;;;;5070917;28;20196;-67
2023/08/04 12:13:28;;;;;;;2.10;1.17;;;;;;;;;;5070736;28;20239;-68
2023/08/04 12:15:55;;;;;;;1.87;1.27;;;;;;;;;;5070809;28;20178;-67
2023/08/04 12:18:25;;;;;;;2.03;1.20;;;;;;;;;;5071059;28;20186;-67
2023/08/04 12:20:52;;;;;;;1.57;1.10;;;;;;;;;;5070904;28;20190;-67
2023/08/04 12:23:18;;;;;;;2.20;1.30;;;;;;;;;;5053441;28;20541;-67
2023/08/04 12:25:45;;;;;;;2.40;1.20;;;;;;;;;;5070556;28;20192;-68
2023/08/04 12:28:12;;;;;;;2.23;1.33;;;;;;;;;;5070335;28;20216;-67
2023/08/04 12:30:56;;;;;;;1.60;1.30;;;;;;;;;;5070725;28;20249;-67
2023/08/04 12:33:40;;;;;;;2.63;1.20;;;;;;;;;;5070528;28;20174;-68
2023/08/04 12:36:07;;;;;;;2.87;1.30;;;;;;;;;;5070808;28;20179;-67
2023/08/04 12:38:34;;;;;;;1.13;1.00;;;;;;;;;;5070276;28;20198;-67
2023/08/04 12:41:01;;;;;;;3.83;1.27;;;;;;;;;;5070572;28;20704;-67
2023/08/04 12:43:27;;;;;;;2.33;1.10;;;;;;;;;;5070379;28;20201;-67
2023/08/04 12:45:56;;;;;;;2.53;1.10;;;;;;;;;;5052401;28;20240;-67
2023/08/04 12:48:23;;;;;;;2.50;1.20;;;;;;;;;;5070311;28;20672;-67
2023/08/04 12:51:07;;;;;;;1.80;1.17;;;;;;;;;;5070457;28;20162;-67
2023/08/04 12:53:36;;;;;;;3.70;1.40;;;;;;;;;;5070556;28;20204;-67
2023/08/04 12:56:21;;;;;;;2.40;1.37;;;;;;;;;;5090825;28;20170;-66
2023/08/04 12:58:48;;;;;;;3.03;1.30;;;;;;;;;;5090220;28;20387;-66
2023/08/04 13:01:33;;;;;;;1.53;1.30;;;;;;;;;;5071515;28;20205;-67
2023/08/04 13:03:59;;;;;;;2.97;1.77;;;;;;;;;;5090354;28;20185;-67
2023/08/04 13:06:44;;;;;;;2.90;1.40;;;;;;;;;;5090173;28;20162;-67
2023/08/04 13:09:10;;;;;;;1.63;1.47;;;;;;;;;;5090230;28;20728;-66
2023/08/04 13:11:37;;;;;;;3.20;1.50;;;;;;;;;;5090377;28;20187;-67
2023/08/04 13:14:04;;;;;;;1.67;1.43;;;;;;;;;;5090025;28;20190;-67
2023/08/04 13:16:31;;;;;;;2.23;1.40;;;;;;;;;;5090460;28;20471;-66
2023/08/04 13:19:15;;;;;;;3.30;1.63;;;;;;;;;;5089957;28;20219;-67
2023/08/04 13:21:41;;;;;;;4.70;1.17;;;;;;;;;;5090039;28;20282;-67
2023/08/04 13:24:26;;;;;;;3.07;1.00;;;;;;;;;;5090020;28;20157;-67
2023/08/04 13:26:53;;;;;;;1.70;1.07;;;;;;;;;;5089973;28;20162;-67
2023/08/04 13:29:19;;;;;;;1.70;1.00;;;;;;;;;;5089943;28;20166;-66
2023/08/04 13:31:46;;;;;;;4.03;1.10;;;;;;;;;;5089683;28;20268;-66
2023/08/04 13:34:13;;;;;;;0.97;0.80;;;;;;;;;;5089827;28;20180;-66
2023/08/04 13:36:58;;;;;;;2.83;1.13;;;;;;;;;;5089980;28;20204;-66
2023/08/04 13:39:25;;;;;;;4.67;1.10;;;;;;;;;;5089434;28;20259;-66
2023/08/04 13:41:54;;;;;;;4.40;1.50;;;;;;;;;;5089718;28;20225;-66
2023/08/04 13:44:23;;;;;;;3.23;1.30;;;;;;;;;;5089343;28;20196;-66
2023/08/04 13:46:51;;;;;;;5.47;1.37;;;;;;;;;;5089963;28;20185;-66
2023/08/04 13:49:37;;;;;;;1.60;1.10;;;;;;;;;;5089496;28;20177;-66
2023/08/04 13:52:04;;;;;;;1.73;1.00;;;;;;;;;;5071494;28;20660;-66
2023/08/04 13:54:31;;;;;;;1.13;1.00;;;;;;;;;;5084250;28;20179;-66
2023/08/04 13:56:58;;;;;;;1.20;1.10;;;;;;;;;;5069685;28;20190;-66
2023/08/04 13:59:25;;;;;;;3.57;1.30;;;;;;;;;;5069127;28;20190;-66
2023/08/04 14:01:52;;;;;;;2.60;1.30;;;;;;;;;;5069042;28;20845;-66
2023/08/04 14:04:20;;;;;;;2.13;1.60;;;;;;;;;;5069065;28;20178;-65
2023/08/04 14:06:48;;;;;;;3.53;1.80;;;;;;;;;;5069039;28;20190;-66
2023/08/04 14:09:15;;;;;;;3.47;1.67;;;;;;;;;;5069036;28;20194;-65
2023/08/04 14:11:41;;;;;;;2.80;1.83;;;;;;;;;;5070087;28;20185;-66
2023/08/04 14:14:08;;;;;;;1.83;1.47;;;;;;;;;;5072845;28;20194;-66
2023/08/04 14:16:35;;;;;;;2.53;1.80;;;;;;;;;;5072646;28;20204;-66
2023/08/04 14:19:04;;;;;;;3.83;1.70;;;;;;;;;;5072948;28;20183;-66
2023/08/04 14:21:32;;;;;;;3.03;1.90;;;;;;;;;;5072709;28;20202;-65
2023/08/04 14:23:59;;;;;;;2.30;1.80;;;;;;;;;;5073296;28;20260;-66
2023/08/04 14:26:26;;;;;;;3.13;1.90;;;;;;;;;;5072598;28;20228;-66
2023/08/04 14:28:53;;;;;;;3.40;2.30;;;;;;;;;;5072468;28;20209;-66
2023/08/04 14:31:20;;;;;;;4.63;2.00;;;;;;;;;;5072612;28;20177;-66
2023/08/04 14:33:47;;;;;;;2.73;1.90;;;;;;;;;;5072580;28;20221;-65
2023/08/04 14:36:14;;;;;;;2.80;2.03;;;;;;;;;;5072328;28;20178;-65
2023/08/04 14:38:41;;;;;;;1.90;1.70;;;;;;;;;;5072778;28;20182;-66
2023/08/04 14:41:08;;;;;;;2.00;1.80;;;;;;;;;;5072253;28;20720;-66
2023/08/04 14:43:35;;;;;;;4.10;1.70;;;;;;;;;;5072492;28;20576;-66
2023/08/04 14:46:01;;;;;;;2.10;1.90;;;;;;;;;;5072158;28;20213;-66
2023/08/04 14:48:28;;;;;;;2.20;1.70;;;;;;;;;;5072366;28;20763;-66
2023/08/04 14:50:55;;;;;;;1.87;1.47;;;;;;;;;;5072409;28;20273;-66
2023/08/04 14:53:40;;;;;;;1.23;1.03;;;;;;;;;;5072636;28;20173;-66
2023/08/04 14:56:06;;;;;;;1.13;0.80;;;;;;;;;;5090519;28;20173;-66
2023/08/04 14:58:34;;;;;;;1.40;1.30;;;;;;;;;;5092161;28;20268;-66
2023/08/04 15:01:07;;;;;;;1.30;1.13;;;;;;;;;;5092351;28;20197;-65
2023/08/04 15:03:37;;;;;;;1.90;1.30;;;;;;;;;;5092445;28;20185;-66
2023/08/04 15:06:10;;;;;;;1.93;1.50;;;;;;;;;;5092639;28;20178;-66
2023/08/04 15:08:38;;;;;;;2.03;1.20;;;;;;;;;;5092510;28;20247;-66
2023/08/04 15:11:06;;;;;;;1.53;1.30;;;;;;;;;;5092241;28;20247;-66
2023/08/04 15:13:33;;;;;;;2.30;1.30;;;;;;;;;;5091775;28;20251;-66
2023/08/04 15:16:17;;;;;;;2.67;1.70;;;;;;;;;;5092120;28;20177;-66
2023/08/04 15:18:44;;;;;;;1.50;1.33;;;;;;;;;;5092032;28;20215;-67
2023/08/04 15:21:11;;;;;;;1.60;1.30;;;;;;;;;;5091980;28;20213;-66
2023/08/04 15:23:38;;;;;;;2.33;1.43;;;;;;;;;;5073663;28;20219;-66
2023/08/04 15:26:04;;;;;;;1.97;1.47;;;;;;;;;;5091756;28;20189;-66
2023/08/04 15:28:51;;;;;;;1.93;1.40;;;;;;;;;;5091853;28;20266;-66
2023/08/04 15:31:18;;;;;;;2.70;1.70;;;;;;;;;;5091695;28;20706;-66
2023/08/04 15:33:45;;;;;;;3.03;1.50;;;;;;;;;;5091714;28;20269;-66